createdAt,value
2023-04-08T00:00:17.842Z,15.38
2023-04-08T00:02:44.376Z,14.45
2023-04-08T00:05:10.872Z,16.50
2023-04-08T00:07:37.519Z,15.95
2023-04-08T00:10:04.609Z,15.68
2023-04-08T00:12:31.222Z,17.10
2023-04-08T00:14:57.979Z,15.52
2023-04-08T00:17:24.484Z,16.95
2023-04-08T00:19:51.751Z,15.10
2023-04-08T00:22:18.544Z,15.35
2023-04-08T00:24:45.026Z,13.90
2023-04-08T00:27:11.477Z,14.80
2023-04-08T00:29:37.982Z,14.95
2023-04-08T00:32:04.842Z,16.58
2023-04-08T00:34:31.354Z,15.63
2023-04-08T00:36:58.183Z,17.13
2023-04-08T00:39:24.624Z,16.63
2023-04-08T00:41:51.231Z,14.23
2023-04-08T00:44:17.866Z,14.75
2023-04-08T00:46:44.416Z,14.23
2023-04-08T00:49:11.377Z,11.50
2023-04-08T00:51:38.084Z,14.85
2023-04-08T00:54:05.572Z,15.73
2023-04-08T00:56:33.100Z,15.10
2023-04-08T00:59:01.126Z,14.43
2023-04-08T01:01:54.060Z,16.95
2023-04-08T01:04:35.406Z,17.58
2023-04-08T01:07:17.239Z,21.63
2023-04-08T01:12:20.523Z,16.52
2023-04-08T01:14:48.772Z,18.35
2023-04-08T01:17:19.718Z,19.20
2023-04-08T01:19:47.791Z,19.65
2023-04-08T01:22:46.268Z,18.73
2023-04-08T01:25:17.398Z,23.58
2023-04-08T01:27:44.478Z,24.48
2023-04-08T01:30:11.887Z,20.63
2023-04-08T01:32:40.073Z,19.88
2023-04-08T01:35:07.925Z,22.42
2023-04-08T01:37:35.532Z,20.52
2023-04-08T01:40:03.143Z,23.10
2023-04-08T01:42:30.048Z,23.63
2023-04-08T01:44:59.132Z,23.80
2023-04-08T01:47:26.631Z,20.40
2023-04-08T01:49:53.590Z,19.42
2023-04-08T01:52:21.198Z,20.58
2023-04-08T01:54:47.753Z,18.85
2023-04-08T01:57:28.465Z,19.58
2023-04-08T02:00:01.789Z,22.17
2023-04-08T02:02:29.922Z,20.20
2023-04-08T02:04:58.308Z,22.40
2023-04-08T02:07:24.830Z,25.17
2023-04-08T02:09:51.486Z,21.52
2023-04-08T02:12:18.199Z,21.20
2023-04-08T02:14:44.810Z,23.60
2023-04-08T02:17:24.259Z,22.73
2023-04-08T02:19:52.558Z,20.65
2023-04-08T02:22:55.391Z,25.25
2023-04-08T02:25:24.383Z,20.55
2023-04-08T02:27:52.920Z,18.88
2023-04-08T02:30:20.356Z,20.00
2023-04-08T02:32:48.307Z,21.50
2023-04-08T02:35:16.486Z,22.23
2023-04-08T02:37:43.434Z,24.83
2023-04-08T02:40:30.792Z,21.13
2023-04-08T02:42:57.964Z,21.75
2023-04-08T02:45:31.116Z,19.30
2023-04-08T02:48:00.013Z,20.52
2023-04-08T02:50:27.101Z,23.23
2023-04-08T02:52:53.533Z,22.70
2023-04-08T02:55:20.438Z,17.60
2023-04-08T02:57:48.273Z,19.73
2023-04-08T03:00:15.786Z,18.23
2023-04-08T03:02:42.470Z,20.90
2023-04-08T03:05:11.906Z,20.90
2023-04-08T03:07:38.692Z,23.55
2023-04-08T03:10:06.116Z,19.60
2023-04-08T03:12:33.011Z,24.10
2023-04-08T03:15:00.152Z,17.73
2023-04-08T03:17:26.727Z,21.15
2023-04-08T03:19:53.378Z,17.65
2023-04-08T03:22:19.840Z,22.23
2023-04-08T03:24:46.365Z,20.27
2023-04-08T03:27:12.880Z,20.05
2023-04-08T03:29:39.498Z,18.15
2023-04-08T03:32:06.489Z,19.75
2023-04-08T03:34:34.650Z,20.08
2023-04-08T03:37:01.681Z,19.48
2023-04-08T03:39:28.254Z,16.95
2023-04-08T03:41:54.768Z,20.58
2023-04-08T03:44:21.199Z,19.38
2023-04-08T03:46:47.731Z,19.33
2023-04-08T03:49:14.171Z,25.77
2023-04-08T03:51:40.554Z,21.17
2023-04-08T03:54:07.774Z,23.80
2023-04-08T03:56:34.305Z,29.30
2023-04-08T03:59:00.879Z,24.30
2023-04-08T04:01:27.379Z,23.42
2023-04-08T04:03:53.979Z,26.13
2023-04-08T04:06:20.470Z,26.88
2023-04-08T04:08:47.063Z,21.13
2023-04-08T04:11:13.519Z,24.25
2023-04-08T04:13:39.956Z,23.88
2023-04-08T04:16:06.597Z,21.45
2023-04-08T04:18:33.177Z,25.67
2023-04-08T04:20:59.611Z,25.30
2023-04-08T04:23:26.076Z,24.30
2023-04-08T04:25:52.547Z,25.42
2023-04-08T04:28:19.007Z,25.50
2023-04-08T04:30:46.124Z,25.67
2023-04-08T04:33:12.781Z,25.95
2023-04-08T04:35:40.914Z,23.67
2023-04-08T04:38:12.186Z,26.65
2023-04-08T04:40:39.228Z,21.85
2023-04-08T04:43:05.795Z,24.75
2023-04-08T04:45:32.340Z,25.70
2023-04-08T04:47:58.784Z,20.30
2023-04-08T04:50:25.360Z,17.67
2023-04-08T04:52:51.830Z,18.45
2023-04-08T04:55:18.468Z,20.10
2023-04-08T04:57:44.989Z,20.60
2023-04-08T05:00:12.103Z,21.48
2023-04-08T05:02:38.814Z,21.05
2023-04-08T05:05:05.992Z,20.50
2023-04-08T05:07:36.537Z,23.65
2023-04-08T05:10:04.407Z,22.55
2023-04-08T05:12:31.378Z,22.92
2023-04-08T05:15:02.147Z,23.50
2023-04-08T05:17:28.687Z,24.40
2023-04-08T05:19:55.198Z,23.65
2023-04-08T05:22:22.220Z,23.90
2023-04-08T05:24:48.903Z,22.77
2023-04-08T05:27:15.562Z,24.20
2023-04-08T05:29:42.389Z,21.95
2023-04-08T05:32:09.221Z,23.88
2023-04-08T05:34:35.748Z,24.70
2023-04-08T05:37:02.184Z,21.67
2023-04-08T05:39:28.713Z,22.10
2023-04-08T05:41:55.349Z,23.20
2023-04-08T05:44:21.791Z,19.27
2023-04-08T05:46:48.306Z,23.35
2023-04-08T05:49:15.671Z,20.73
2023-04-08T05:51:42.338Z,24.98
2023-04-08T05:54:09.016Z,24.67
2023-04-08T05:56:35.973Z,21.52
2023-04-08T05:59:02.492Z,22.52
2023-04-08T06:01:29.040Z,20.33
2023-04-08T06:03:58.549Z,20.90
2023-04-08T06:06:28.055Z,19.50
2023-04-08T06:08:54.460Z,23.38
2023-04-08T06:11:20.978Z,20.25
2023-04-08T06:13:48.019Z,20.98
2023-04-08T06:16:18.706Z,18.75
2023-04-08T06:18:47.288Z,18.52
2023-04-08T06:21:14.208Z,19.08
2023-04-08T06:23:40.661Z,18.08
2023-04-08T06:26:07.111Z,15.70
2023-04-08T06:28:33.625Z,16.35
2023-04-08T06:31:00.395Z,17.20
2023-04-08T06:33:26.857Z,13.75
2023-04-08T06:36:04.744Z,14.82
2023-04-08T06:38:32.037Z,17.75
2023-04-08T06:41:08.956Z,17.33
2023-04-08T06:43:37.953Z,16.35
2023-04-08T06:46:04.743Z,14.38
2023-04-08T06:48:31.354Z,16.75
2023-04-08T06:50:59.046Z,17.02
2023-04-08T06:53:26.166Z,12.32
2023-04-08T06:55:52.696Z,18.27
2023-04-08T06:58:19.158Z,13.20
2023-04-08T07:00:45.651Z,14.10
2023-04-08T07:03:12.525Z,13.90
2023-04-08T07:05:39.421Z,14.43
2023-04-08T07:08:06.612Z,12.20
2023-04-08T07:10:34.394Z,14.93
2023-04-08T07:13:01.734Z,15.30
2023-04-08T07:15:28.169Z,15.68
2023-04-08T07:17:57.029Z,13.18
2023-04-08T07:20:23.672Z,11.43
2023-04-08T07:22:50.377Z,13.40
2023-04-08T07:25:17.013Z,12.85
2023-04-08T07:27:43.715Z,12.38
2023-04-08T07:30:10.538Z,12.57
2023-04-08T07:32:37.075Z,15.73
2023-04-08T07:35:03.991Z,14.88
2023-04-08T07:37:30.628Z,14.73
2023-04-08T07:39:57.056Z,15.95
2023-04-08T07:42:23.479Z,14.90
2023-04-08T07:44:49.951Z,14.77
2023-04-08T07:47:16.562Z,15.27
2023-04-08T07:49:43.003Z,13.90
2023-04-08T07:52:09.481Z,13.75
2023-04-08T07:54:35.998Z,13.25
2023-04-08T07:57:02.622Z,13.65
2023-04-08T07:59:29.380Z,14.88
2023-04-08T08:01:55.933Z,13.02
2023-04-08T08:04:25.728Z,13.02
2023-04-08T08:06:52.374Z,14.45
2023-04-08T08:09:18.876Z,12.55
2023-04-08T08:11:45.375Z,14.27
2023-04-08T08:14:13.828Z,14.27
2023-04-08T08:16:40.321Z,14.60
2023-04-08T08:19:07.565Z,13.15
2023-04-08T08:21:37.090Z,15.50
2023-04-08T08:24:03.616Z,14.35
2023-04-08T08:26:30.100Z,13.50
2023-04-08T08:28:56.958Z,16.15
2023-04-08T08:31:23.471Z,14.20
2023-04-08T08:33:50.131Z,14.75
2023-04-08T08:36:17.963Z,16.92
2023-04-08T08:38:44.545Z,13.93
2023-04-08T08:41:11.245Z,15.07
2023-04-08T08:43:38.656Z,14.20
2023-04-08T08:46:09.986Z,15.70
2023-04-08T08:48:38.573Z,14.82
2023-04-08T08:51:09.799Z,16.00
2023-04-08T08:53:36.774Z,16.48
2023-04-08T08:58:33.542Z,16.27
2023-04-08T09:01:00.208Z,16.42
2023-04-08T09:03:28.761Z,14.40
2023-04-08T09:06:00.651Z,17.80
2023-04-08T09:10:54.474Z,15.60
2023-04-08T09:13:23.467Z,16.13
2023-04-08T09:16:05.176Z,13.38
2023-04-08T09:21:03.298Z,16.42
2023-04-08T09:23:53.150Z,13.75
2023-04-08T09:26:27.528Z,16.88
2023-04-08T09:29:18.276Z,14.93
2023-04-08T09:31:59.166Z,12.85
2023-04-08T09:34:27.280Z,13.40
2023-04-08T09:36:55.692Z,16.58
2023-04-08T09:39:22.787Z,14.90
2023-04-08T09:41:50.955Z,14.80
2023-04-08T09:44:20.768Z,16.38
2023-04-08T09:46:50.462Z,15.07
2023-04-08T09:49:33.767Z,14.05
2023-04-08T09:52:15.733Z,15.45
2023-04-08T09:54:56.330Z,13.90
2023-04-08T09:57:33.432Z,14.03
2023-04-08T10:00:12.944Z,16.75
2023-04-08T10:03:14.299Z,14.82
2023-04-08T10:05:42.238Z,14.60
2023-04-08T10:08:08.794Z,13.38
2023-04-08T10:10:38.354Z,14.77
2023-04-08T10:13:06.626Z,14.82
2023-04-08T10:15:34.639Z,14.10
2023-04-08T10:18:06.819Z,13.80
2023-04-08T10:20:36.055Z,14.05
2023-04-08T10:23:10.476Z,13.38
2023-04-08T10:25:38.695Z,12.75
2023-04-08T10:28:11.254Z,15.77
2023-04-08T10:30:47.432Z,13.45
2023-04-08T10:33:21.914Z,15.95
2023-04-08T10:35:49.299Z,12.90
2023-04-08T10:38:17.602Z,15.00
2023-04-08T10:40:44.593Z,16.05
2023-04-08T10:43:12.930Z,13.13
2023-04-08T10:45:42.970Z,13.82
2023-04-08T10:48:15.401Z,13.55
2023-04-08T10:50:42.011Z,17.15
2023-04-08T10:53:08.617Z,13.57
2023-04-08T10:55:35.407Z,13.50
2023-04-08T10:58:09.245Z,12.52
2023-04-08T11:00:38.232Z,12.95
2023-04-08T11:03:09.864Z,14.02
2023-04-08T11:05:38.027Z,14.65
2023-04-08T11:08:05.678Z,15.02
2023-04-08T11:10:37.731Z,13.55
2023-04-08T11:13:07.506Z,13.38
2023-04-08T11:15:36.051Z,14.52
2023-04-08T11:18:04.367Z,13.02
2023-04-08T11:20:32.481Z,13.05
2023-04-08T11:22:58.885Z,15.52
2023-04-08T11:25:25.531Z,13.40
2023-04-08T11:27:52.099Z,13.10
2023-04-08T11:30:18.703Z,12.73
2023-04-08T11:32:45.229Z,12.38
2023-04-08T11:35:11.905Z,13.98
2023-04-08T11:37:41.993Z,11.55
2023-04-08T11:40:12.554Z,17.35
2023-04-08T11:42:40.000Z,12.30
2023-04-08T11:45:11.781Z,13.95
2023-04-08T11:47:38.365Z,12.35
2023-04-08T11:50:05.541Z,12.60
2023-04-08T11:52:42.935Z,11.98
2023-04-08T11:55:11.730Z,14.35
2023-04-08T11:57:38.953Z,13.15
2023-04-08T12:00:07.285Z,12.70
2023-04-08T12:02:37.356Z,13.43
2023-04-08T12:05:04.019Z,13.77
2023-04-08T12:07:30.517Z,16.67
2023-04-08T12:09:56.993Z,12.75
2023-04-08T12:12:23.606Z,11.65
2023-04-08T12:14:50.145Z,14.13
2023-04-08T12:17:16.766Z,12.90
2023-04-08T12:19:43.264Z,12.85
2023-04-08T12:22:09.673Z,13.40
2023-04-08T12:24:36.069Z,11.52
2023-04-08T12:27:04.683Z,13.90
2023-04-08T12:29:31.626Z,13.40
2023-04-08T12:31:58.386Z,12.63
2023-04-08T12:34:24.986Z,13.23
2023-04-08T12:36:51.543Z,13.50
2023-04-08T12:39:17.926Z,13.15
2023-04-08T12:41:44.370Z,11.98
2023-04-08T12:44:10.879Z,12.30
2023-04-08T12:46:37.384Z,12.35
2023-04-08T12:49:05.402Z,11.15
2023-04-08T12:51:32.732Z,14.60
2023-04-08T12:54:00.581Z,11.85
2023-04-08T12:56:27.214Z,15.02
2023-04-08T12:58:55.362Z,11.88
2023-04-08T13:01:21.964Z,11.93
2023-04-08T13:03:48.705Z,12.40
2023-04-08T13:06:15.990Z,14.02
2023-04-08T13:08:42.827Z,11.75
2023-04-08T13:11:09.324Z,13.82
2023-04-08T13:13:36.565Z,13.40
2023-04-08T13:16:03.153Z,13.93
2023-04-08T13:18:29.617Z,13.73
2023-04-08T13:20:56.126Z,13.52
2023-04-08T13:23:22.716Z,11.32
2023-04-08T13:25:49.412Z,13.55
2023-04-08T13:28:16.060Z,11.52
2023-04-08T13:30:42.555Z,16.02
2023-04-08T13:33:09.007Z,13.25
2023-04-08T13:35:35.537Z,11.20
2023-04-08T13:38:02.020Z,13.38
2023-04-08T13:40:28.801Z,13.95
2023-04-08T13:42:55.778Z,12.32
2023-04-08T13:45:22.393Z,14.80
2023-04-08T13:47:48.842Z,13.68
2023-04-08T13:50:15.741Z,15.30
2023-04-08T13:52:42.347Z,15.18
2023-04-08T13:55:09.053Z,13.47
2023-04-08T13:57:35.669Z,14.07
2023-04-08T14:00:02.221Z,14.50
2023-04-08T14:02:28.832Z,15.55
2023-04-08T14:04:55.381Z,14.43
2023-04-08T14:07:21.832Z,12.35
2023-04-08T14:09:48.256Z,11.60
2023-04-08T14:12:14.718Z,12.98
2023-04-08T14:14:41.185Z,12.77
2023-04-08T14:17:07.722Z,12.57
2023-04-08T14:19:34.316Z,11.25
2023-04-08T14:22:01.131Z,17.20
2023-04-08T14:24:27.537Z,14.02
2023-04-08T14:26:53.993Z,12.13
2023-04-08T14:29:20.826Z,13.63
2023-04-08T14:31:47.254Z,13.15
2023-04-08T14:34:13.678Z,12.60
2023-04-08T14:36:40.148Z,13.32
2023-04-08T14:39:06.596Z,10.15
2023-04-08T14:41:33.026Z,12.07
2023-04-08T14:43:59.436Z,11.35
2023-04-08T14:46:28.708Z,13.02
2023-04-08T14:48:55.762Z,12.75
2023-04-08T14:51:22.255Z,12.90
2023-04-08T14:53:48.734Z,12.35
2023-04-08T14:56:15.374Z,13.45
2023-04-08T14:58:41.859Z,12.40
2023-04-08T15:01:08.356Z,10.75
2023-04-08T15:03:34.975Z,11.25
2023-04-08T15:06:01.755Z,18.92
2023-04-08T15:08:28.660Z,12.00
2023-04-08T15:10:55.197Z,14.60
2023-04-08T15:13:21.671Z,12.73
2023-04-08T15:15:48.263Z,11.20
2023-04-08T15:18:14.865Z,11.20
2023-04-08T15:20:41.838Z,10.68
2023-04-08T15:23:08.586Z,11.75
2023-04-08T15:25:35.079Z,11.18
2023-04-08T15:28:02.586Z,11.48
2023-04-08T15:30:34.968Z,11.48
2023-04-08T15:33:05.295Z,13.90
2023-04-08T15:35:32.755Z,12.75
2023-04-08T15:38:00.355Z,11.75
2023-04-08T15:40:26.862Z,12.93
2023-04-08T15:42:53.306Z,12.00
2023-04-08T15:45:20.007Z,9.68
2023-04-08T15:47:46.494Z,11.95
2023-04-08T15:50:13.114Z,10.85
2023-04-08T15:52:39.520Z,13.38
2023-04-08T15:55:06.846Z,11.65
2023-04-08T15:57:33.578Z,10.65
2023-04-08T16:00:00.144Z,12.20
2023-04-08T16:02:26.819Z,8.90
2023-04-08T16:04:53.336Z,10.07
2023-04-08T16:07:19.832Z,11.10
2023-04-08T16:09:46.286Z,8.45
2023-04-08T16:12:14.651Z,7.75
2023-04-08T16:14:41.098Z,7.68
2023-04-08T16:17:07.560Z,14.77
2023-04-08T16:19:33.983Z,6.68
2023-04-08T16:22:00.410Z,11.52
2023-04-08T16:24:27.284Z,6.63
2023-04-08T16:26:53.722Z,7.78
2023-04-08T16:29:20.256Z,7.03
2023-04-08T16:31:46.666Z,10.82
2023-04-08T16:34:13.110Z,7.47
2023-04-08T16:36:39.724Z,9.98
2023-04-08T16:39:06.179Z,8.10
2023-04-08T16:41:32.576Z,10.32
2023-04-08T16:43:59.017Z,7.60
2023-04-08T16:46:25.486Z,7.82
2023-04-08T16:48:51.884Z,10.02
2023-04-08T16:51:18.730Z,9.10
2023-04-08T16:53:45.222Z,6.40
2023-04-08T16:56:16.141Z,7.97
2023-04-08T16:58:43.546Z,9.90
2023-04-08T17:01:11.099Z,11.43
2023-04-08T17:03:37.783Z,7.53
2023-04-08T17:06:12.107Z,10.35
2023-04-08T17:08:39.134Z,10.43
2023-04-08T17:11:08.080Z,8.50
2023-04-08T17:13:34.608Z,8.70
2023-04-08T17:16:01.170Z,9.02
2023-04-08T17:18:27.680Z,10.10
2023-04-08T17:20:54.125Z,8.27
2023-04-08T17:23:20.571Z,7.72
2023-04-08T17:25:46.988Z,9.50
2023-04-08T17:28:13.703Z,10.85
2023-04-08T17:30:40.195Z,19.35
2023-04-08T17:33:07.244Z,13.50
2023-04-08T17:35:35.140Z,15.25
2023-04-08T17:38:03.087Z,16.85
2023-04-08T17:40:30.438Z,13.60
2023-04-08T17:42:57.314Z,13.48
2023-04-08T17:45:24.165Z,13.00
2023-04-08T17:47:51.696Z,10.75
2023-04-08T17:50:18.251Z,11.43
2023-04-08T17:52:46.205Z,10.10
2023-04-08T17:55:14.197Z,12.65
2023-04-08T17:57:40.896Z,16.48
2023-04-08T18:00:08.336Z,9.30
2023-04-08T18:02:36.855Z,11.75
2023-04-08T18:05:04.240Z,12.35
2023-04-08T18:07:30.707Z,10.10
2023-04-08T18:09:57.157Z,10.00
2023-04-08T18:12:23.596Z,10.85
2023-04-08T18:14:50.052Z,10.57
2023-04-08T18:17:16.463Z,9.98
2023-04-08T18:19:42.861Z,9.07
2023-04-08T18:22:09.329Z,8.10
2023-04-08T18:24:37.143Z,7.53
2023-04-08T18:27:05.107Z,8.55
2023-04-08T18:29:31.988Z,7.80
2023-04-08T18:31:58.402Z,7.90
2023-04-08T18:34:25.280Z,8.55
2023-04-08T18:36:52.011Z,8.93
2023-04-08T18:39:18.821Z,7.75
2023-04-08T18:41:45.262Z,7.28
2023-04-08T18:44:12.045Z,7.57
2023-04-08T18:46:38.794Z,8.00
2023-04-08T18:49:05.527Z,7.90
2023-04-08T18:51:33.312Z,8.75
2023-04-08T18:53:59.782Z,7.85
2023-04-08T18:56:26.562Z,8.18
2023-04-08T18:58:54.639Z,8.02
2023-04-08T19:01:21.518Z,7.82
2023-04-08T19:03:48.196Z,9.13
2023-04-08T19:06:17.271Z,8.88
2023-04-08T19:08:43.728Z,9.48
2023-04-08T19:11:10.296Z,8.35
2023-04-08T19:13:36.927Z,8.52
2023-04-08T19:16:03.556Z,8.80
2023-04-08T19:18:30.182Z,7.57
2023-04-08T19:20:56.678Z,7.78
2023-04-08T19:23:23.187Z,9.15
2023-04-08T19:25:49.644Z,9.50
2023-04-08T19:28:16.207Z,10.30
2023-04-08T19:30:42.622Z,11.20
2023-04-08T19:33:09.138Z,9.45
2023-04-08T19:35:35.715Z,8.82
2023-04-08T19:38:02.925Z,8.18
2023-04-08T19:40:29.435Z,9.95
2023-04-08T19:42:55.964Z,10.00
2023-04-08T19:45:22.384Z,8.90
2023-04-08T19:47:49.132Z,8.95
2023-04-08T19:50:15.657Z,12.05
2023-04-08T19:52:42.232Z,8.95
2023-04-08T19:55:10.258Z,8.73
2023-04-08T19:57:37.125Z,8.38
2023-04-08T20:00:04.489Z,8.60
2023-04-08T20:02:33.152Z,8.65
2023-04-08T20:04:59.750Z,11.35
2023-04-08T20:07:26.280Z,10.63
2023-04-08T20:09:52.790Z,10.30
2023-04-08T20:12:19.450Z,8.60
2023-04-08T20:14:45.932Z,10.38
2023-04-08T20:17:12.627Z,9.02
2023-04-08T20:19:40.261Z,8.68
2023-04-08T20:22:07.057Z,9.05
2023-04-08T20:24:33.474Z,8.63
2023-04-08T20:27:00.181Z,8.15
2023-04-08T20:29:26.748Z,11.18
2023-04-08T20:31:53.368Z,9.48
2023-04-08T20:34:19.902Z,10.38
2023-04-08T20:36:46.511Z,13.10
2023-04-08T20:39:12.984Z,9.30
2023-04-08T20:41:39.615Z,10.57
2023-04-08T20:44:06.945Z,10.35
2023-04-08T20:46:34.877Z,9.32
2023-04-08T20:49:01.932Z,10.55
2023-04-08T20:51:28.402Z,8.23
2023-04-08T20:53:55.824Z,8.93
2023-04-08T20:56:22.717Z,8.65
2023-04-08T20:58:49.262Z,10.15
2023-04-08T21:01:16.373Z,9.82
2023-04-08T21:03:43.335Z,9.70
2023-04-08T21:06:17.496Z,9.05
2023-04-08T21:08:44.122Z,10.88
2023-04-08T21:11:11.046Z,11.32
2023-04-08T21:13:37.609Z,10.43
2023-04-08T21:16:04.755Z,9.45
2023-04-08T21:18:31.578Z,10.93
2023-04-08T21:20:57.990Z,9.75
2023-04-08T21:23:24.918Z,10.50
2023-04-08T21:25:51.458Z,9.20
2023-04-08T21:28:17.910Z,9.98
2023-04-08T21:30:44.376Z,8.70
2023-04-08T21:33:10.831Z,9.77
2023-04-08T21:35:37.400Z,10.35
2023-04-08T21:38:03.869Z,9.57
2023-04-08T21:40:30.618Z,9.07
2023-04-08T21:42:57.063Z,11.73
2023-04-08T21:45:24.720Z,9.75
2023-04-08T21:47:51.295Z,9.52
2023-04-08T21:50:17.879Z,10.02
2023-04-08T21:52:44.440Z,9.90
2023-04-08T21:55:10.898Z,10.32
2023-04-08T21:57:37.787Z,10.68
2023-04-08T22:00:12.873Z,10.55
2023-04-08T22:02:42.501Z,10.20
2023-04-08T23:01:21.982Z,15.75
2023-04-08T23:03:49.594Z,17.38
2023-04-08T23:06:16.621Z,15.48
2023-04-08T23:08:43.155Z,19.08
2023-04-08T23:11:09.690Z,18.13
2023-04-08T23:13:36.234Z,16.75
2023-04-08T23:16:02.855Z,14.23
2023-04-08T23:18:29.392Z,14.85
2023-04-08T23:20:57.322Z,15.07
2023-04-08T23:23:24.789Z,16.65
2023-04-08T23:25:52.569Z,14.00
2023-04-08T23:28:20.291Z,14.98
2023-04-08T23:30:46.798Z,13.80
2023-04-08T23:33:13.242Z,16.77
2023-04-08T23:35:40.256Z,13.60
2023-04-08T23:38:06.846Z,13.88
2023-04-08T23:40:33.285Z,15.32
2023-04-08T23:42:59.692Z,17.90
2023-04-08T23:45:26.102Z,17.77
2023-04-08T23:47:52.517Z,17.80
2023-04-08T23:50:20.233Z,19.00
2023-04-08T23:52:46.673Z,18.10
2023-04-08T23:55:13.187Z,17.83
2023-04-08T23:57:43.211Z,19.50
